IBE212 RJCC-RJOA
Flight info
| Callsign | IBE212 |
|---|---|
| Flight time | 1h 49m |
| Altitude | 40000 |
| Route | DALBI Y120 TAPPI Y12 ARIKA Y14 GOLDO Y381 KMC Y382 WAKIT Y20 KAMMY Y202 AMURO |
| Aircraft | A346/H-SDE2E3FGHIJ3J4J5M1RWXY/LB1D1 |
Departure
| Time | 2026-05-04 14:53 |
|---|---|
| Airport | New Chitose Airport (RJCC) |
Arrival
| Time | 2026-05-04 16:42 |
|---|---|
| Airport | Hiroshima Airport (RJOA) |
| Time | Latitude | Longitude | Altitude | Speed | Heading |
|---|---|---|---|---|---|
| 2026-05-04 14:53 | 42.86635 | 141.77063 | 6889 ft | 282 kts | 95° |
| 2026-05-04 14:53 | 42.85691 | 141.79517 | 7712 ft | 306 kts | 130° |
| 2026-05-04 14:53 | 42.83871 | 141.81073 | 8622 ft | 315 kts | 164° |
| 2026-05-04 14:53 | 42.81713 | 141.81499 | 9600 ft | 314 kts | 186° |
| 2026-05-04 14:54 | 42.79623 | 141.80794 | 10475 ft | 308 kts | 212° |
| 2026-05-04 14:54 | 42.77822 | 141.79178 | 11167 ft | 315 kts | 223° |
| 2026-05-04 14:54 | 42.76040 | 141.77306 | 11699 ft | 332 kts | 223° |
| 2026-05-04 14:54 | 42.74150 | 141.75335 | 12199 ft | 351 kts | 222° |
| 2026-05-04 14:55 | 42.72139 | 141.73302 | 12665 ft | 369 kts | 220° |
| 2026-05-04 14:55 | 42.70028 | 141.71227 | 13444 ft | 377 kts | 220° |
| 2026-05-04 14:55 | 42.67885 | 141.69155 | 14397 ft | 377 kts | 220° |
| 2026-05-04 14:55 | 42.65743 | 141.67080 | 15282 ft | 380 kts | 220° |
| 2026-05-04 14:56 | 42.63580 | 141.64988 | 16084 ft | 384 kts | 220° |
| 2026-05-04 14:56 | 42.61418 | 141.62902 | 16924 ft | 387 kts | 220° |
| 2026-05-04 14:56 | 42.59211 | 141.60773 | 17701 ft | 393 kts | 220° |
| 2026-05-04 14:56 | 42.56963 | 141.58611 | 18398 ft | 398 kts | 220° |
| 2026-05-04 14:57 | 42.54691 | 141.56423 | 19115 ft | 401 kts | 219° |
| 2026-05-04 14:57 | 42.52405 | 141.54228 | 19886 ft | 404 kts | 220° |
| 2026-05-04 14:57 | 42.50223 | 141.51858 | 20668 ft | 401 kts | 227° |
| 2026-05-04 14:57 | 42.48342 | 141.49071 | 21428 ft | 400 kts | 235° |
| 2026-05-04 14:58 | 42.46790 | 141.45937 | 22080 ft | 403 kts | 242° |
| 2026-05-04 14:58 | 42.45406 | 141.42583 | 22670 ft | 409 kts | 243° |
| 2026-05-04 14:58 | 42.44035 | 141.39174 | 23289 ft | 414 kts | 243° |
| 2026-05-04 14:58 | 42.43121 | 141.36897 | 23662 ft | 416 kts | 243° |
| 2026-05-04 14:59 | 42.41262 | 141.32276 | 24505 ft | 418 kts | 242° |
| 2026-05-04 14:59 | 42.39882 | 141.28861 | 25182 ft | 418 kts | 242° |
| 2026-05-04 14:59 | 42.37078 | 141.21958 | 26536 ft | 418 kts | 241° |
| 2026-05-04 15:00 | 42.35672 | 141.18509 | 27190 ft | 418 kts | 241° |
| 2026-05-04 15:00 | 42.34263 | 141.15053 | 27845 ft | 419 kts | 241° |
| 2026-05-04 15:00 | 42.32851 | 141.11590 | 28484 ft | 420 kts | 240° |
| 2026-05-04 15:01 | 42.30033 | 141.04690 | 30018 ft | 414 kts | 240° |
| 2026-05-04 15:01 | 42.28647 | 141.01306 | 30784 ft | 409 kts | 240° |
| 2026-05-04 15:01 | 42.27269 | 140.97950 | 31420 ft | 408 kts | 240° |
| 2026-05-04 15:01 | 42.25908 | 140.94639 | 31984 ft | 408 kts | 240° |
| 2026-05-04 15:02 | 42.24520 | 140.91277 | 32473 ft | 409 kts | 240° |
| 2026-05-04 15:02 | 42.23134 | 140.87909 | 32998 ft | 410 kts | 240° |
| 2026-05-04 15:02 | 42.21745 | 140.84533 | 33559 ft | 409 kts | 240° |
| 2026-05-04 15:02 | 42.20360 | 140.81173 | 34065 ft | 408 kts | 240° |
| 2026-05-04 15:03 | 42.18980 | 140.77826 | 34504 ft | 408 kts | 240° |
| 2026-05-04 15:03 | 42.17599 | 140.74483 | 34921 ft | 407 kts | 240° |
| 2026-05-04 15:03 | 42.16222 | 140.71156 | 35325 ft | 406 kts | 240° |
| 2026-05-04 15:03 | 42.14843 | 140.67830 | 35689 ft | 405 kts | 240° |
| 2026-05-04 15:04 | 42.13464 | 140.64516 | 36017 ft | 405 kts | 239° |
| 2026-05-04 15:04 | 42.11915 | 140.61335 | 36328 ft | 405 kts | 233° |
| 2026-05-04 15:04 | 42.10135 | 140.58406 | 36638 ft | 404 kts | 229° |
| 2026-05-04 15:04 | 42.08172 | 140.55764 | 36952 ft | 404 kts | 224° |
| 2026-05-04 15:05 | 42.05959 | 140.53333 | 37261 ft | 405 kts | 218° |
| 2026-05-04 15:05 | 42.03628 | 140.51264 | 37535 ft | 407 kts | 213° |
| 2026-05-04 15:05 | 42.01116 | 140.49497 | 37802 ft | 409 kts | 208° |
| 2026-05-04 15:05 | 41.98458 | 140.48073 | 38052 ft | 413 kts | 204° |
| 2026-05-04 15:06 | 41.95692 | 140.46946 | 38172 ft | 417 kts | 201° |
| 2026-05-04 15:06 | 41.92890 | 140.45862 | 38280 ft | 420 kts | 201° |
| 2026-05-04 15:06 | 41.90075 | 140.44789 | 38432 ft | 421 kts | 201° |
| 2026-05-04 15:07 | 41.84417 | 140.42658 | 38745 ft | 423 kts | 201° |
| 2026-05-04 15:07 | 41.82504 | 140.41942 | 38862 ft | 423 kts | 201° |
| 2026-05-04 15:07 | 41.79703 | 140.40896 | 39005 ft | 424 kts | 201° |
| 2026-05-04 15:07 | 41.76850 | 140.39832 | 39147 ft | 425 kts | 201° |
| 2026-05-04 15:08 | 41.73997 | 140.38769 | 39266 ft | 427 kts | 201° |
| 2026-05-04 15:08 | 41.71129 | 140.37701 | 39408 ft | 428 kts | 201° |
| 2026-05-04 15:08 | 41.68253 | 140.36632 | 39559 ft | 429 kts | 201° |
| 2026-05-04 15:08 | 41.65373 | 140.35563 | 39702 ft | 430 kts | 201° |
| 2026-05-04 15:09 | 41.62490 | 140.34494 | 39813 ft | 431 kts | 201° |
| 2026-05-04 15:09 | 41.56733 | 140.32364 | 39808 ft | 427 kts | 201° |
| 2026-05-04 15:10 | 41.48165 | 140.29204 | 39818 ft | 428 kts | 201° |
| 2026-05-04 15:11 | 41.39545 | 140.26035 | 39831 ft | 428 kts | 201° |
| 2026-05-04 15:11 | 41.33805 | 140.23933 | 39811 ft | 426 kts | 201° |
| 2026-05-04 15:12 | 41.28112 | 140.21851 | 39834 ft | 422 kts | 201° |
| 2026-05-04 15:12 | 41.22450 | 140.19779 | 39838 ft | 422 kts | 201° |
| 2026-05-04 15:13 | 41.16786 | 140.17713 | 39840 ft | 422 kts | 201° |
| 2026-05-04 15:13 | 41.11107 | 140.15668 | 39856 ft | 424 kts | 200° |
| 2026-05-04 15:14 | 41.05440 | 140.13712 | 39845 ft | 421 kts | 201° |
| 2026-05-04 15:14 | 40.99768 | 140.11755 | 39851 ft | 421 kts | 201° |
| 2026-05-04 15:15 | 40.94098 | 140.09798 | 39865 ft | 421 kts | 201° |
| 2026-05-04 15:15 | 40.88421 | 140.07839 | 39858 ft | 422 kts | 201° |
| 2026-05-04 15:16 | 40.79899 | 140.04915 | 39858 ft | 419 kts | 201° |
| 2026-05-04 15:17 | 40.71458 | 140.02015 | 39879 ft | 419 kts | 201° |
| 2026-05-04 15:17 | 40.62937 | 139.99096 | 39886 ft | 422 kts | 201° |
| 2026-05-04 15:18 | 40.57284 | 139.97172 | 39890 ft | 420 kts | 201° |
| 2026-05-04 15:19 | 40.48819 | 139.94206 | 39887 ft | 418 kts | 204° |
| 2026-05-04 15:19 | 40.40692 | 139.90150 | 39903 ft | 414 kts | 210° |
| 2026-05-04 15:20 | 40.35547 | 139.86774 | 39908 ft | 413 kts | 212° |
| 2026-05-04 15:20 | 40.30473 | 139.83391 | 39891 ft | 410 kts | 212° |
| 2026-05-04 15:21 | 40.25381 | 139.79985 | 39911 ft | 411 kts | 212° |
| 2026-05-04 15:22 | 40.17738 | 139.74865 | 39923 ft | 411 kts | 212° |
| 2026-05-04 15:22 | 40.10085 | 139.69749 | 39930 ft | 413 kts | 212° |
| 2026-05-04 15:23 | 40.04965 | 139.66332 | 39887 ft | 413 kts | 212° |
| 2026-05-04 15:23 | 39.99838 | 139.62979 | 39921 ft | 411 kts | 212° |
| 2026-05-04 15:24 | 39.89614 | 139.56342 | 39933 ft | 412 kts | 212° |
| 2026-05-04 15:25 | 39.84474 | 139.53009 | 39939 ft | 412 kts | 212° |
| 2026-05-04 15:26 | 39.76761 | 139.48020 | 39916 ft | 413 kts | 212° |
| 2026-05-04 15:26 | 39.69081 | 139.43062 | 39946 ft | 412 kts | 212° |
| 2026-05-04 15:27 | 39.61374 | 139.38100 | 39949 ft | 412 kts | 212° |
| 2026-05-04 15:28 | 39.53665 | 139.33151 | 39956 ft | 412 kts | 212° |
| 2026-05-04 15:29 | 39.45961 | 139.28213 | 39939 ft | 410 kts | 212° |
| 2026-05-04 15:30 | 39.28111 | 139.16826 | 39966 ft | 409 kts | 212° |
| 2026-05-04 15:31 | 39.20468 | 139.11972 | 39967 ft | 409 kts | 212° |
| 2026-05-04 15:32 | 39.07685 | 139.03876 | 39985 ft | 410 kts | 212° |
| 2026-05-04 15:34 | 38.94827 | 138.95765 | 39992 ft | 412 kts | 212° |
| 2026-05-04 15:34 | 38.87130 | 138.90929 | 39986 ft | 409 kts | 212° |
| 2026-05-04 15:35 | 38.79454 | 138.86113 | 39998 ft | 409 kts | 212° |
| 2026-05-04 15:36 | 38.71772 | 138.81307 | 40007 ft | 410 kts | 212° |
| 2026-05-04 15:36 | 38.66659 | 138.78114 | 39968 ft | 410 kts | 212° |
| 2026-05-04 15:37 | 38.61539 | 138.74924 | 40004 ft | 408 kts | 212° |
| 2026-05-04 15:37 | 38.56436 | 138.71748 | 40006 ft | 408 kts | 213° |
| 2026-05-04 15:38 | 38.51362 | 138.68594 | 40020 ft | 408 kts | 213° |
| 2026-05-04 15:38 | 38.46251 | 138.65422 | 40018 ft | 408 kts | 213° |
| 2026-05-04 15:39 | 38.41138 | 138.62255 | 40020 ft | 408 kts | 213° |
| 2026-05-04 15:40 | 38.33473 | 138.57518 | 40020 ft | 407 kts | 213° |
| 2026-05-04 15:40 | 38.28369 | 138.54368 | 40035 ft | 407 kts | 213° |
| 2026-05-04 15:41 | 38.23264 | 138.51224 | 40037 ft | 408 kts | 213° |
| 2026-05-04 15:41 | 38.18146 | 138.48076 | 40042 ft | 409 kts | 213° |
| 2026-05-04 15:42 | 38.13111 | 138.44851 | 40005 ft | 407 kts | 216° |
| 2026-05-04 15:42 | 38.08315 | 138.41137 | 40023 ft | 401 kts | 220° |
| 2026-05-04 15:43 | 38.03827 | 138.36954 | 40044 ft | 399 kts | 224° |
| 2026-05-04 15:43 | 37.99667 | 138.32334 | 40050 ft | 396 kts | 228° |
| 2026-05-04 15:44 | 37.95715 | 138.27469 | 40056 ft | 395 kts | 228° |
| 2026-05-04 15:44 | 37.91755 | 138.22613 | 40050 ft | 396 kts | 228° |
| 2026-05-04 15:45 | 37.87795 | 138.17744 | 40055 ft | 396 kts | 228° |
| 2026-05-04 15:45 | 37.83864 | 138.12910 | 40059 ft | 396 kts | 228° |
| 2026-05-04 15:46 | 37.79905 | 138.08045 | 40061 ft | 396 kts | 228° |
| 2026-05-04 15:46 | 37.75943 | 138.03183 | 40061 ft | 396 kts | 228° |
| 2026-05-04 15:47 | 37.71993 | 137.98339 | 40061 ft | 395 kts | 228° |
| 2026-05-04 15:47 | 37.68037 | 137.93504 | 40061 ft | 395 kts | 228° |
| 2026-05-04 15:48 | 37.64083 | 137.88673 | 40065 ft | 396 kts | 228° |
| 2026-05-04 15:48 | 37.58138 | 137.81423 | 40074 ft | 396 kts | 228° |
| 2026-05-04 15:49 | 37.54168 | 137.76592 | 40068 ft | 396 kts | 228° |
| 2026-05-04 15:49 | 37.50213 | 137.71785 | 40076 ft | 397 kts | 228° |
| 2026-05-04 15:50 | 37.46219 | 137.66940 | 40079 ft | 397 kts | 228° |
| 2026-05-04 15:50 | 37.42235 | 137.62116 | 40080 ft | 397 kts | 228° |
| 2026-05-04 15:51 | 37.38274 | 137.57324 | 40085 ft | 397 kts | 228° |
| 2026-05-04 15:51 | 37.34280 | 137.52500 | 40047 ft | 398 kts | 228° |
| 2026-05-04 15:52 | 37.30297 | 137.47696 | 40087 ft | 396 kts | 228° |
| 2026-05-04 15:52 | 37.26311 | 137.42900 | 40095 ft | 397 kts | 228° |
| 2026-05-04 15:53 | 37.22320 | 137.38101 | 40099 ft | 397 kts | 228° |
| 2026-05-04 15:53 | 37.18326 | 137.33308 | 40084 ft | 397 kts | 228° |
| 2026-05-04 15:54 | 37.14361 | 137.28560 | 40097 ft | 396 kts | 229° |
| 2026-05-04 15:54 | 37.10379 | 137.23794 | 40106 ft | 395 kts | 229° |
| 2026-05-04 15:55 | 37.06391 | 137.19029 | 40105 ft | 396 kts | 229° |
| 2026-05-04 15:55 | 37.02402 | 137.14274 | 40104 ft | 395 kts | 229° |
| 2026-05-04 15:56 | 36.98419 | 137.09529 | 40110 ft | 395 kts | 229° |
| 2026-05-04 15:56 | 36.95103 | 137.05585 | 40117 ft | 395 kts | 229° |
| 2026-05-04 15:57 | 36.91119 | 137.00854 | 40113 ft | 393 kts | 229° |
| 2026-05-04 15:57 | 36.87149 | 136.96148 | 40116 ft | 393 kts | 229° |
| 2026-05-04 15:58 | 36.83183 | 136.91452 | 40116 ft | 393 kts | 229° |
| 2026-05-04 15:58 | 36.79204 | 136.86752 | 40104 ft | 393 kts | 229° |
| 2026-05-04 15:59 | 36.75231 | 136.82069 | 40114 ft | 393 kts | 229° |
| 2026-05-04 15:59 | 36.71244 | 136.77378 | 40114 ft | 393 kts | 229° |
| 2026-05-04 16:00 | 36.67293 | 136.72737 | 40107 ft | 393 kts | 229° |
| 2026-05-04 16:00 | 36.63307 | 136.68062 | 40115 ft | 393 kts | 229° |
| 2026-05-04 16:01 | 36.59325 | 136.63398 | 40122 ft | 393 kts | 229° |
| 2026-05-04 16:01 | 36.55329 | 136.58726 | 40120 ft | 393 kts | 229° |
| 2026-05-04 16:02 | 36.51348 | 136.54078 | 40113 ft | 390 kts | 228° |
| 2026-05-04 16:03 | 36.45410 | 136.47159 | 40122 ft | 389 kts | 228° |
| 2026-05-04 16:03 | 36.41449 | 136.42553 | 40119 ft | 390 kts | 228° |
| 2026-05-04 16:04 | 36.37451 | 136.37981 | 40122 ft | 391 kts | 227° |
| 2026-05-04 16:04 | 36.31385 | 136.31266 | 40122 ft | 391 kts | 227° |
| 2026-05-04 16:05 | 36.27326 | 136.26775 | 40116 ft | 390 kts | 227° |
| 2026-05-04 16:06 | 36.21249 | 136.20054 | 40120 ft | 390 kts | 227° |
| 2026-05-04 16:07 | 36.13150 | 136.11119 | 40104 ft | 388 kts | 227° |
| 2026-05-04 16:08 | 36.05088 | 136.02259 | 40117 ft | 388 kts | 227° |
| 2026-05-04 16:09 | 35.95005 | 135.91217 | 40115 ft | 388 kts | 227° |
| 2026-05-04 16:10 | 35.86913 | 135.82385 | 40118 ft | 388 kts | 227° |
| 2026-05-04 16:11 | 35.78814 | 135.73571 | 40113 ft | 387 kts | 227° |
| 2026-05-04 16:12 | 35.66686 | 135.60421 | 40123 ft | 387 kts | 227° |
| 2026-05-04 16:13 | 35.58589 | 135.51667 | 40131 ft | 387 kts | 227° |
| 2026-05-04 16:14 | 35.50488 | 135.42937 | 40131 ft | 387 kts | 227° |
| 2026-05-04 16:16 | 35.40413 | 135.32114 | 40127 ft | 384 kts | 227° |
| 2026-05-04 16:17 | 35.30348 | 135.21341 | 39991 ft | 384 kts | 227° |
| 2026-05-04 16:18 | 35.24370 | 135.14965 | 39310 ft | 374 kts | 227° |
| 2026-05-04 16:18 | 35.22415 | 135.12882 | 39081 ft | 370 kts | 227° |
| 2026-05-04 16:19 | 35.16657 | 135.06750 | 38206 ft | 366 kts | 227° |
| 2026-05-04 16:19 | 35.12812 | 135.02661 | 37305 ft | 366 kts | 227° |
| 2026-05-04 16:20 | 35.07520 | 134.96028 | 35553 ft | 363 kts | 236° |
| 2026-05-04 16:20 | 35.04714 | 134.90905 | 34312 ft | 363 kts | 242° |
| 2026-05-04 16:21 | 35.01720 | 134.82367 | 32031 ft | 368 kts | 251° |
| 2026-05-04 16:22 | 35.00488 | 134.76279 | 30586 ft | 369 kts | 253° |
| 2026-05-04 16:22 | 34.98724 | 134.67097 | 29810 ft | 372 kts | 252° |
| 2026-05-04 16:23 | 34.96717 | 134.57819 | 28894 ft | 381 kts | 253° |
| 2026-05-04 16:24 | 34.94027 | 134.45434 | 26877 ft | 372 kts | 253° |
| 2026-05-04 16:25 | 34.92693 | 134.39326 | 25455 ft | 373 kts | 255° |
| 2026-05-04 16:26 | 34.89980 | 134.26912 | 22412 ft | 380 kts | 256° |
| 2026-05-04 16:26 | 34.87934 | 134.17599 | 20376 ft | 379 kts | 257° |
| 2026-05-04 16:27 | 34.86569 | 134.11389 | 19067 ft | 380 kts | 258° |
| 2026-05-04 16:28 | 34.84495 | 134.02023 | 17054 ft | 378 kts | 258° |
| 2026-05-04 16:28 | 34.82457 | 133.92855 | 15468 ft | 369 kts | 258° |
| 2026-05-04 16:29 | 34.79802 | 133.80985 | 13495 ft | 359 kts | 258° |
| 2026-05-04 16:30 | 34.77842 | 133.72260 | 11959 ft | 352 kts | 259° |
| 2026-05-04 16:31 | 34.76559 | 133.66539 | 10998 ft | 347 kts | 258° |
| 2026-05-04 16:31 | 34.74720 | 133.58444 | 10463 ft | 311 kts | 259° |
| 2026-05-04 16:32 | 34.73099 | 133.51292 | 10136 ft | 276 kts | 259° |
| 2026-05-04 16:33 | 34.72107 | 133.46903 | 9741 ft | 266 kts | 260° |
| 2026-05-04 16:33 | 34.71126 | 133.42565 | 9098 ft | 263 kts | 260° |
| 2026-05-04 16:34 | 34.70153 | 133.38276 | 8500 ft | 260 kts | 260° |
| 2026-05-04 16:34 | 34.69667 | 133.36154 | 8212 ft | 260 kts | 258° |
| 2026-05-04 16:35 | 34.65847 | 133.31330 | 7281 ft | 278 kts | 218° |
| 2026-05-04 16:35 | 34.60937 | 133.27543 | 6276 ft | 282 kts | 218° |
| 2026-05-04 16:36 | 34.59281 | 133.26241 | 5854 ft | 285 kts | 218° |
| 2026-05-04 16:36 | 34.55922 | 133.23589 | 5042 ft | 288 kts | 217° |
| 2026-05-04 16:37 | 34.52601 | 133.20992 | 4600 ft | 279 kts | 217° |
| 2026-05-04 16:37 | 34.50974 | 133.19711 | 4411 ft | 277 kts | 217° |
| 2026-05-04 16:37 | 34.47838 | 133.17248 | 4281 ft | 257 kts | 217° |
| 2026-05-04 16:38 | 34.44977 | 133.15009 | 4266 ft | 233 kts | 217° |
| 2026-05-04 16:39 | 34.43359 | 133.10324 | 3770 ft | 210 kts | 278° |
| 2026-05-04 16:39 | 34.43536 | 133.06749 | 3172 ft | 213 kts | 275° |
| 2026-05-04 16:40 | 34.43591 | 133.03293 | 2657 ft | 194 kts | 272° |
| 2026-05-04 16:40 | 34.43606 | 133.00183 | 2091 ft | 172 kts | 270° |
| 2026-05-04 16:41 | 34.43602 | 132.97928 | 1724 ft | 150 kts | 271° |
| 2026-05-04 16:41 | 34.43607 | 132.94180 | 1224 ft | 148 kts | 271° |
| 2026-05-04 16:42 | 34.43602 | 132.91344 | 1101 ft | 49 kts | 270° |
| 2026-05-04 16:43 | 34.43643 | 132.90897 | 1100 ft | 0 kts | 324° |
| 2026-05-04 16:44 | 34.43673 | 132.90878 | 1101 ft | 5 kts | 345° |
| 2026-05-04 16:45 | 34.43765 | 132.90958 | 1100 ft | 13 kts | 78° |
| 2026-05-04 16:46 | 34.43773 | 132.91415 | 1098 ft | 24 kts | 89° |
| 2026-05-04 16:46 | 34.43779 | 132.91801 | 1096 ft | 13 kts | 69° |
| 2026-05-04 16:47 | 34.43872 | 132.91855 | 1090 ft | 1 kts | 4° |
| 2026-05-04 16:47 | 34.43893 | 132.91857 | 1088 ft | 0 kts | 2° |
| 2026-05-04 16:48 | 34.43894 | 132.91858 | 1088 ft | 0 kts | 359° |
| 2026-05-04 17:10 | 34.43871 | 132.91859 | 1089 ft | 3 kts | 354° |
| 2026-05-04 17:11 | 34.43848 | 132.91863 | 1090 ft | 3 kts | 349° |
| 2026-05-04 17:11 | 34.43825 | 132.91869 | 1093 ft | 3 kts | 346° |
| 2026-05-04 17:11 | 34.43781 | 132.91879 | 1093 ft | 3 kts | 2° |
| 2026-05-04 17:12 | 34.43767 | 132.91877 | 1094 ft | 3 kts | 37° |
| 2026-05-04 17:12 | 34.43769 | 132.91892 | 1095 ft | 0 kts | 90° |
| 2026-05-04 17:15 | 34.43769 | 132.91894 | 1095 ft | 1 kts | 90° |
| 2026-05-04 17:16 | 34.43771 | 132.91972 | 1095 ft | 8 kts | 88° |
| 2026-05-04 17:16 | 34.43774 | 132.92253 | 1099 ft | 14 kts | 90° |
| 2026-05-04 17:17 | 34.43773 | 132.92389 | 1099 ft | 18 kts | 90° |
| 2026-05-04 17:17 | 34.43770 | 132.92937 | 1098 ft | 26 kts | 90° |
| 2026-05-04 17:18 | 34.43772 | 132.93166 | 1098 ft | 28 kts | 89° |
| 2026-05-04 17:18 | 34.43740 | 132.93525 | 1093 ft | 14 kts | 139° |
| 2026-05-04 17:19 | 34.43730 | 132.93533 | 1093 ft | 0 kts | 151° |
| 2026-05-04 17:20 | 34.43728 | 132.93534 | 1094 ft | 1 kts | 152° |
| 2026-05-04 17:20 | 34.43710 | 132.93543 | 1094 ft | 2 kts | 164° |
| 2026-05-04 17:20 | 34.43694 | 132.93548 | 1095 ft | 3 kts | 167° |
| 2026-05-04 17:21 | 34.43646 | 132.93548 | 1096 ft | 4 kts | 197° |
| 2026-05-04 17:21 | 34.43614 | 132.93517 | 1097 ft | 2 kts | 243° |
| 2026-05-04 17:22 | 34.43605 | 132.93482 | 1097 ft | 0 kts | 259° |
| 2026-05-04 17:22 | 34.43598 | 132.93352 | 1099 ft | 50 kts | 269° |
| 2026-05-04 17:23 | 34.43627 | 132.89750 | 1671 ft | 192 kts | 272° |
| 2026-05-04 17:23 | 34.43652 | 132.88161 | 2702 ft | 184 kts | 271° |
| 2026-05-04 17:23 | 34.43683 | 132.85018 | 3993 ft | 200 kts | 277° |
| 2026-05-04 17:24 | 34.43973 | 132.83317 | 4434 ft | 214 kts | 288° |
| 2026-05-04 17:24 | 34.46474 | 132.78877 | 6226 ft | 245 kts | 347° |
| 2026-05-04 17:25 | 34.48210 | 132.78859 | 7001 ft | 257 kts | 11° |
| 2026-05-04 17:25 | 34.51258 | 132.81392 | 8716 ft | 278 kts | 45° |
| 2026-05-04 17:26 | 34.52439 | 132.85987 | 10596 ft | 305 kts | 85° |
| 2026-05-04 17:26 | 34.51796 | 132.94132 | 12615 ft | 350 kts | 96° |
| 2026-05-04 17:27 | 34.51111 | 133.00309 | 13648 ft | 388 kts | 96° |
| 2026-05-04 17:27 | 34.50403 | 133.07061 | 14918 ft | 411 kts | 96° |
| 2026-05-04 17:28 | 34.49808 | 133.12841 | 16371 ft | 418 kts | 96° |
| 2026-05-04 17:29 | 34.48711 | 133.23530 | 18814 ft | 432 kts | 96° |
| 2026-05-04 17:29 | 34.47639 | 133.36004 | 20800 ft | 460 kts | 85° |
| 2026-05-04 17:30 | 34.51259 | 133.45316 | 22359 ft | 471 kts | 49° |
| 2026-05-04 17:31 | 34.55355 | 133.51684 | 23154 ft | 484 kts | 49° |
| 2026-05-04 17:31 | 34.61488 | 133.61468 | 23166 ft | 485 kts | 50° |
| 2026-05-04 17:32 | 34.65531 | 133.68025 | 23155 ft | 485 kts | 49° |
| 2026-05-04 17:33 | 34.71570 | 133.77844 | 23156 ft | 485 kts | 50° |
| 2026-05-04 17:33 | 34.73485 | 133.81236 | 23148 ft | 487 kts | 58° |
| 2026-05-04 17:34 | 34.75321 | 133.93298 | 23164 ft | 489 kts | 91° |
| 2026-05-04 17:34 | 34.75288 | 133.97443 | 23157 ft | 489 kts | 92° |
| 2026-05-04 17:35 | 34.75267 | 134.09892 | 23149 ft | 489 kts | 91° |
| 2026-05-04 17:35 | 34.75314 | 134.18186 | 23162 ft | 490 kts | 90° |
| 2026-05-04 17:35 | 34.75351 | 134.22343 | 23154 ft | 491 kts | 90° |
| 2026-05-04 17:36 | 34.75392 | 134.26496 | 23145 ft | 491 kts | 91° |
| 2026-05-04 17:36 | 34.75400 | 134.30651 | 23141 ft | 490 kts | 94° |
| 2026-05-04 17:36 | 34.74780 | 134.34670 | 23110 ft | 479 kts | 115° |
| 2026-05-04 17:36 | 34.73120 | 134.38108 | 23135 ft | 465 kts | 137° |
| 2026-05-04 17:37 | 34.70682 | 134.40536 | 23127 ft | 446 kts | 159° |
| 2026-05-04 17:37 | 34.67867 | 134.41775 | 23138 ft | 429 kts | 176° |
| 2026-05-04 17:37 | 34.64944 | 134.41950 | 22854 ft | 411 kts | 193° |
| 2026-05-04 17:37 | 34.62395 | 134.41214 | 22544 ft | 398 kts | 207° |
| 2026-05-04 17:38 | 34.60015 | 134.39627 | 22196 ft | 386 kts | 221° |
| 2026-05-04 17:38 | 34.58117 | 134.37393 | 21810 ft | 377 kts | 235° |
| 2026-05-04 17:38 | 34.56785 | 134.34678 | 21394 ft | 372 kts | 248° |
| 2026-05-04 17:38 | 34.55761 | 134.31800 | 20950 ft | 370 kts | 246° |
| 2026-05-04 17:39 | 34.52525 | 134.26995 | 20031 ft | 374 kts | 221° |
| 2026-05-04 17:39 | 34.50378 | 134.25200 | 19543 ft | 374 kts | 219° |
| 2026-05-04 17:39 | 34.48215 | 134.23457 | 19073 ft | 372 kts | 218° |
| 2026-05-04 17:40 | 34.46051 | 134.21739 | 18633 ft | 371 kts | 218° |
| 2026-05-04 17:40 | 34.43889 | 134.20034 | 18133 ft | 370 kts | 218° |
| 2026-05-04 17:40 | 34.41758 | 134.18358 | 17671 ft | 369 kts | 218° |
| 2026-05-04 17:40 | 34.39607 | 134.16668 | 17224 ft | 367 kts | 218° |
| 2026-05-04 17:41 | 34.37469 | 134.14991 | 16793 ft | 365 kts | 218° |
| 2026-05-04 17:41 | 34.35343 | 134.13321 | 16352 ft | 363 kts | 218° |
| 2026-05-04 17:41 | 34.33231 | 134.11668 | 15934 ft | 361 kts | 218° |
| 2026-05-04 17:41 | 34.31127 | 134.10023 | 15515 ft | 359 kts | 218° |
| 2026-05-04 17:42 | 34.28904 | 134.08623 | 15061 ft | 367 kts | 203° |
| 2026-05-04 17:42 | 34.26347 | 134.08183 | 14612 ft | 377 kts | 182° |
| 2026-05-04 17:42 | 34.23759 | 134.08850 | 14155 ft | 386 kts | 160° |
| 2026-05-04 17:42 | 34.21488 | 134.10601 | 13690 ft | 391 kts | 138° |
| 2026-05-04 17:43 | 34.19868 | 134.13230 | 13229 ft | 390 kts | 115° |
| 2026-05-04 17:43 | 34.19099 | 134.16335 | 12810 ft | 385 kts | 98° |
| 2026-05-04 17:43 | 34.18694 | 134.19527 | 12392 ft | 382 kts | 96° |
| 2026-05-04 17:43 | 34.18319 | 134.22705 | 11976 ft | 380 kts | 96° |
| 2026-05-04 17:44 | 34.17926 | 134.25816 | 11566 ft | 378 kts | 97° |
| 2026-05-04 17:44 | 34.17502 | 134.28943 | 11138 ft | 376 kts | 97° |
| 2026-05-04 17:44 | 34.17065 | 134.32050 | 10733 ft | 373 kts | 97° |
| 2026-05-04 17:44 | 34.16632 | 134.35084 | 10567 ft | 360 kts | 97° |
| 2026-05-04 17:45 | 34.16215 | 134.38018 | 10435 ft | 348 kts | 97° |
| 2026-05-04 17:45 | 34.15817 | 134.40852 | 10338 ft | 335 kts | 97° |
| 2026-05-04 17:45 | 34.15435 | 134.43586 | 10226 ft | 323 kts | 97° |
| 2026-05-04 17:45 | 34.15065 | 134.46219 | 10118 ft | 313 kts | 97° |
| 2026-05-04 17:46 | 34.14702 | 134.48769 | 10017 ft | 303 kts | 97° |
| 2026-05-04 17:46 | 34.14347 | 134.51278 | 9732 ft | 303 kts | 97° |
| 2026-05-04 17:46 | 34.13992 | 134.53780 | 9399 ft | 302 kts | 97° |
| 2026-05-04 17:46 | 34.13634 | 134.56301 | 9099 ft | 300 kts | 97° |
| 2026-05-04 17:47 | 34.13285 | 134.58773 | 8798 ft | 298 kts | 95° |
| 2026-05-04 17:47 | 34.13240 | 134.61236 | 8486 ft | 289 kts | 76° |
| 2026-05-04 17:47 | 34.13814 | 134.63512 | 8239 ft | 279 kts | 62° |
| 2026-05-04 17:47 | 34.14590 | 134.65647 | 7978 ft | 275 kts | 60° |
| 2026-05-04 17:48 | 34.15376 | 134.67718 | 7716 ft | 273 kts | 59° |
| 2026-05-04 17:48 | 34.16161 | 134.69802 | 7440 ft | 272 kts | 60° |
| 2026-05-04 17:48 | 34.16934 | 134.71885 | 7163 ft | 271 kts | 60° |
| 2026-05-04 17:48 | 34.17700 | 134.73967 | 6884 ft | 269 kts | 60° |
| 2026-05-04 17:49 | 34.18455 | 134.76036 | 6599 ft | 267 kts | 60° |
| 2026-05-04 17:49 | 34.19201 | 134.78087 | 6330 ft | 266 kts | 60° |
| 2026-05-04 17:49 | 34.19942 | 134.80129 | 6044 ft | 264 kts | 60° |
| 2026-05-04 17:49 | 34.20679 | 134.82164 | 5757 ft | 263 kts | 60° |
| 2026-05-04 17:50 | 34.21410 | 134.84184 | 5480 ft | 261 kts | 61° |
| 2026-05-04 17:50 | 34.22138 | 134.86198 | 5205 ft | 260 kts | 61° |
| 2026-05-04 17:50 | 34.22849 | 134.88167 | 4956 ft | 258 kts | 62° |
| 2026-05-04 17:50 | 34.23569 | 134.90154 | 4672 ft | 257 kts | 62° |
| 2026-05-04 17:51 | 34.24278 | 134.92129 | 4367 ft | 255 kts | 62° |
| 2026-05-04 17:51 | 34.24987 | 134.94100 | 4091 ft | 254 kts | 63° |
| 2026-05-04 17:51 | 34.25701 | 134.96085 | 3996 ft | 260 kts | 63° |
| 2026-05-04 17:51 | 34.26414 | 134.98104 | 4001 ft | 261 kts | 65° |
| 2026-05-04 17:52 | 34.27049 | 135.00168 | 4006 ft | 261 kts | 65° |
| 2026-05-04 17:52 | 34.27853 | 135.02113 | 3999 ft | 256 kts | 54° |
| 2026-05-04 17:52 | 34.28893 | 135.03832 | 3958 ft | 247 kts | 47° |
| 2026-05-04 17:52 | 34.29993 | 135.05402 | 3702 ft | 242 kts | 46° |
| 2026-05-04 17:53 | 34.31082 | 135.06956 | 3389 ft | 242 kts | 47° |
| 2026-05-04 17:53 | 34.32152 | 135.08529 | 3059 ft | 241 kts | 48° |
| 2026-05-04 17:53 | 34.33203 | 135.10104 | 2734 ft | 240 kts | 49° |
| 2026-05-04 17:53 | 34.34251 | 135.11687 | 2398 ft | 239 kts | 49° |
| 2026-05-04 17:54 | 34.35253 | 135.13253 | 2052 ft | 231 kts | 52° |
| 2026-05-04 17:54 | 34.36179 | 135.14798 | 1832 ft | 218 kts | 51° |
| 2026-05-04 17:54 | 34.37051 | 135.16147 | 1749 ft | 198 kts | 49° |
| 2026-05-04 17:54 | 34.37944 | 135.17418 | 1309 ft | 194 kts | 47° |
| 2026-05-04 17:55 | 34.38819 | 135.18622 | 927 ft | 187 kts | 49° |
| 2026-05-04 17:55 | 34.39559 | 135.19825 | 721 ft | 170 kts | 50° |
| 2026-05-04 17:55 | 34.40303 | 135.20866 | 463 ft | 159 kts | 47° |
| 2026-05-04 17:55 | 34.40970 | 135.21864 | 257 ft | 146 kts | 47° |
| 2026-05-04 17:56 | 34.41616 | 135.22786 | 112 ft | 142 kts | 47° |
| 2026-05-04 17:56 | 34.42237 | 135.23669 | 31 ft | 122 kts | 49° |
| 2026-05-04 17:56 | 34.42646 | 135.24268 | 35 ft | 65 kts | 50° |
| 2026-05-04 17:56 | 34.42879 | 135.24618 | 33 ft | 41 kts | 51° |
| 2026-05-04 17:57 | 34.43031 | 135.24793 | 34 ft | 23 kts | 32° |
| 2026-05-04 17:57 | 34.43117 | 135.24845 | 33 ft | 0 kts | 22° |
| 2026-05-04 17:59 | 34.43118 | 135.24845 | 33 ft | 0 kts | 22° |
| 2026-05-04 17:59 | 34.43169 | 135.24865 | 33 ft | 8 kts | 5° |
| 2026-05-04 18:00 | 34.43218 | 135.24823 | 32 ft | 10 kts | 271° |
| 2026-05-04 18:00 | 34.43182 | 135.24725 | 31 ft | 15 kts | 240° |
| 2026-05-04 18:00 | 34.43110 | 135.24612 | 31 ft | 18 kts | 229° |
| 2026-05-04 18:00 | 34.43083 | 135.24453 | 31 ft | 21 kts | 259° |
| 2026-05-04 18:01 | 34.43019 | 135.24297 | 31 ft | 21 kts | 250° |
| 2026-05-04 18:01 | 34.42989 | 135.24133 | 31 ft | 10 kts | 238° |
| 2026-05-04 18:01 | 34.42934 | 135.24049 | 31 ft | 15 kts | 231° |
| 2026-05-04 18:02 | 34.42948 | 135.23934 | 31 ft | 9 kts | 309° |
| 2026-05-04 18:02 | 34.42951 | 135.23929 | 31 ft | 0 kts | 312° |
| 2026-05-04 18:02 | 34.42966 | 135.23908 | 31 ft | 0 kts | 321° |